Latest Weather Observations for Mount Ginini

IDN60801

Issued at 8:02 pm EST Saturday 5 September 2015 (issued every 30 minutes, with the page automatically refreshed every 10 minutes)

About weather observations | Map of weather stations | Latest weather observations for NSW | Other Formats
Station Details ID: 070349 Name: MOUNT GININI AWS Lat: -35.53 Lon: 148.77 Height: 1760.0 m
Data from the previous 72 hours. | See also: Recent months at Mount Ginini
Date/Time
EST
Temp
°C
App
Temp
°C
Dew
Point
Rel
Hum
%
Delta-T
°C
Wind Press
QNH
hPa
Press
MSL
hPa
Rain
since 9 am
mm
Dir
 
Spd
km/h
Gust
km/h
Spd
kts
Gust
kts
05/08:00pm 1.4 -2.2 0.5 94 0.4 E 9 13 5 7 - - 0.0
05/07:30pm 1.9 -1.2 0.1 88 0.7 E 6 9 3 5 - - 0.0
05/07:00pm 2.3 -1.4 0.2 86 0.9 ENE 9 13 5 7 - - 0.0
05/06:30pm 2.3 -0.8 1.3 93 0.4 ENE 7 13 4 7 - - 0.0
05/06:00pm 2.6 -0.8 1.9 95 0.3 NE 9 11 5 6 - - 0.0
05/05:30pm 3.0 0.2 2.1 94 0.4 NE 6 11 3 6 - - 0.0
05/05:00pm 3.5 0.6 2.6 94 0.4 NE 7 11 4 6 - - 0.0
05/04:30pm 3.9 1.0 2.4 90 0.7 NE 7 13 4 7 - - 0.0
05/04:00pm 5.0 2.0 1.7 79 1.5 NE 7 13 4 7 - - 0.0
05/03:30pm 5.1 1.9 2.8 85 1.1 NNE 9 17 5 9 - - 0.0
05/03:00pm 5.5 1.8 2.5 81 1.4 NNE 11 24 6 13 - - 0.0
05/02:30pm 6.2 3.2 2.3 76 1.8 NNE 7 13 4 7 - - 0.0
05/02:00pm 6.2 3.3 1.3 71 2.2 NNE 6 13 3 7 - - 0.0
05/01:30pm 6.3 3.1 0.6 67 2.5 NNE 7 17 4 9 - - 0.0
05/01:00pm 7.4 4.3 0.4 61 3.1 N 6 11 3 6 - - 0.0
05/12:30pm 8.9 5.8 -0.1 53 4.0 NW 6 11 3 6 - - 0.0
05/12:00pm 6.1 3.2 -1.3 59 3.1 W 4 9 2 5 - - 0.0
05/11:30am 6.7 4.2 -1.2 57 3.3 WSW 2 7 1 4 - - 0.0
05/11:00am 6.0 2.7 -1.2 60 3.0 SW 6 11 3 6 - - 0.0
05/10:30am 5.5 2.6 -1.4 61 2.9 SW 4 9 2 5 - - 0.0
05/10:00am 5.9 3.1 -3.7 50 3.8 E 2 7 1 4 - - 0.0
05/09:30am 5.2 2.3 -3.8 52 3.5 ESE 2 11 1 6 - - 0.0
05/09:00am 4.6 1.0 -3.9 54 3.3 E 6 11 3 6 - - 0.0
05/08:30am 3.3 0.1 -3.9 59 2.7 SE 4 9 2 5 - - 0.0
05/08:00am 2.6 -1.1 -5.0 57 2.9 SE 6 11 3 6 - - 0.0
05/07:30am 1.9 -2.3 -3.8 66 2.3 SSE 9 13 5 7 - - 0.0
05/07:00am 1.0 -3.1 -0.1 92 0.5 SSE 11 17 6 9 - - 0.0
05/06:30am -0.5 -5.1 -0.9 97 0.1 SSW 13 17 7 9 - - 0.0
05/06:00am -0.8 -5.4 -1.2 97 0.1 SW 13 19 7 10 - - 0.0
05/05:30am -0.9 -5.5 -1.2 98 0.1 WSW 13 19 7 10 - - 0.0
05/05:00am -1.0 -5.6 -1.3 98 0.1 WSW 13 19 7 10 - - 0.0
05/04:30am -1.0 -6.0 -1.1 99 0.0 SW 15 20 8 11 - - 0.0
05/04:00am -0.7 -6.0 -0.8 99 0.0 SW 17 22 9 12 - - 0.0
05/03:30am -0.3 -4.8 -0.4 99 0.0 SW 13 22 7 12 - - 0.0
05/03:00am 0.0 -5.2 -0.1 99 0.0 WSW 17 26 9 14 - - 0.0
05/02:30am 0.3 -5.3 0.2 99 0.0 WSW 19 28 10 15 - - 0.0
05/02:00am 0.4 -4.0 0.3 99 0.0 W 13 22 7 12 - - 0.0
05/01:30am 0.4 -4.0 0.3 99 0.0 W 13 20 7 11 - - 0.0
05/01:00am -0.1 -4.6 -0.2 99 0.0 WSW 13 17 7 9 - - 0.0
05/12:30am -0.1 -4.6 -0.2 99 0.0 SW 13 20 7 11 - - 0.0
05/12:00am 0.0 -4.1 -0.1 99 0.0 SW 11 19 6 10 - - 0.0
 
Date/Time
EST
Temp
°C
App
Temp
°C
Dew
Point
Rel
Hum
%
Delta-T
°C
Wind Press
QNH
hPa
Press
MSL
hPa
Rain
since 9 am
mm
Dir
 
Spd
km/h
Gust
km/h
Spd
kts
Gust
kts
04/11:30pm 0.2 -3.9 0.1 99 0.0 SW 11 19 6 10 - - 0.0
04/11:00pm 0.2 -3.5 0.1 99 0.0 SW 9 17 5 9 - - 0.0
04/10:30pm 0.8 -3.5 0.7 99 0.0 SW 13 19 7 10 - - 0.0
04/10:00pm 0.7 -2.9 0.6 99 0.0 SW 9 17 5 9 - - 0.0
04/09:30pm 0.9 -2.7 0.8 99 0.0 SW 9 17 5 9 - - 0.0
04/09:00pm 1.4 -2.5 1.3 99 0.0 SW 11 20 6 11 - - 0.0
04/08:30pm 1.7 -2.1 1.6 99 0.0 SW 11 20 6 11 - - 0.0
04/08:00pm 1.8 -2.4 1.7 99 0.0 WSW 13 22 7 12 - - 0.0
04/07:30pm 2.0 -1.4 1.9 99 0.0 WSW 9 19 5 10 - - 0.0
04/07:00pm 2.1 -1.3 2.0 99 0.0 W 9 19 5 10 - - 0.0
04/06:30pm 2.2 -1.9 2.1 99 0.0 W 13 22 7 12 - - 0.0
04/06:00pm 2.4 -1.7 2.3 99 0.0 W 13 26 7 14 - - 0.0
04/05:30pm 2.6 -1.1 2.3 98 0.1 W 11 24 6 13 - - 0.0
04/05:00pm 2.8 -1.3 2.4 97 0.2 W 13 24 7 13 - - 0.0
04/04:30pm 3.4 -1.0 2.8 96 0.3 W 15 28 8 15 - - 0.0
04/04:00pm 4.0 0.1 3.3 95 0.3 W 13 26 7 14 - - 0.0
04/03:30pm 4.4 0.1 3.5 94 0.4 W 15 28 8 15 - - 0.0
04/03:00pm 6.5 1.7 2.8 77 1.7 W 17 32 9 17 - - 0.0
04/02:30pm 6.4 2.1 5.2 92 0.6 W 17 32 9 17 - - 0.0
04/02:00pm 5.2 0.9 3.2 87 0.9 W 15 28 8 15 - - 0.0
04/01:30pm 4.4 0.3 2.4 87 0.9 WSW 13 26 7 14 - - 0.0
04/01:00pm 4.8 1.8 3.9 94 0.4 WSW 9 19 5 10 - - 0.0
04/12:30pm 4.8 1.4 3.9 94 0.4 W 11 22 6 12 - - 0.0
04/12:00pm 5.3 2.3 4.3 93 0.5 W 9 24 5 13 - - 0.0
04/11:30am 6.5 3.4 5.6 94 0.4 WNW 11 20 6 11 - - 0.0
04/11:00am 5.7 2.4 4.8 94 0.4 W 11 19 6 10 - - 0.0
04/10:30am 4.6 1.6 3.9 95 0.3 W 9 19 5 10 - - 0.0
04/10:00am 4.0 0.9 3.6 97 0.2 W 9 17 5 9 - - 0.0
04/09:30am 3.5 0.3 3.2 98 0.1 WSW 9 17 5 9 - - 0.0
04/09:00am 2.7 -0.6 2.6 99 0.0 W 9 15 5 8 - - 1.6
04/08:30am 1.9 -1.5 1.8 99 0.0 WNW 9 15 5 8 - - 1.6
04/08:00am 1.1 -2.5 0.8 98 0.1 W 9 17 5 9 - - 1.6
04/07:30am 0.4 -3.3 0.1 98 0.1 W 9 15 5 8 - - 1.6
04/07:00am 0.0 -4.1 -0.3 98 0.1 W 11 19 6 10 - - 1.6
04/06:30am -0.2 -4.3 -0.5 98 0.1 WSW 11 20 6 11 - - 1.6
04/06:00am -0.4 -4.6 -0.7 98 0.1 WSW 11 19 6 10 - - 1.6
04/05:30am -0.9 -4.8 -1.2 98 0.1 SSW 9 13 5 7 - - 1.6
04/05:00am -0.5 -4.3 -0.8 98 0.1 SSE 9 11 5 6 - - 1.6
04/04:30am -0.4 -3.8 -0.7 98 0.1 SSE 7 13 4 7 - - 1.6
04/04:00am -0.1 -5.0 -0.4 98 0.1 SSE 15 24 8 13 - - 1.6
04/03:30am -0.2 -4.3 -0.5 98 0.1 SE 11 22 6 12 - - 1.6
04/03:00am -0.2 -4.0 -0.5 98 0.1 SE 9 17 5 9 - - 1.6
04/02:30am -0.1 -4.2 -0.4 98 0.1 SE 11 20 6 11 - - 1.6
04/02:00am -0.2 -4.3 -0.5 98 0.1 SE 11 24 6 13 - - 1.6
04/01:30am 0.0 -4.5 -0.3 98 0.1 SE 13 22 7 12 - - 1.6
04/01:00am 0.0 -4.9 -0.3 98 0.1 SE 15 26 8 14 - - 1.6
04/12:30am 0.2 -5.4 -0.1 98 0.1 SSE 19 30 10 16 - - 1.6
04/12:00am 0.2 -5.6 -0.1 98 0.1 SSE 20 41 11 22 - - 1.6
 
Date/Time
EST
Temp
°C
App
Temp
°C
Dew
Point
Rel
Hum
%
Delta-T
°C
Wind Press
QNH
hPa
Press
MSL
hPa
Rain
since 9 am
mm
Dir
 
Spd
km/h
Gust
km/h
Spd
kts
Gust
kts
03/11:30pm 0.3 -4.9 0.0 98 0.1 SSE 17 32 9 17 - - 1.6
03/11:00pm 0.4 -3.7 0.1 98 0.1 ESE 11 32 6 17 - - 1.6
03/10:30pm 0.3 -6.2 0.0 98 0.1 SE 24 43 13 23 - - 1.6
03/10:00pm 0.5 -4.7 0.2 98 0.1 SE 17 44 9 24 - - 1.6
03/09:30pm 0.6 -5.9 0.3 98 0.1 SSE 24 43 13 23 - - 1.6
03/09:00pm 0.7 -5.8 0.4 98 0.1 SE 24 54 13 29 - - 1.6
03/08:30pm 0.7 -7.3 0.4 98 0.1 SSE 32 57 17 31 - - 1.6
03/08:00pm 0.5 -8.1 0.2 98 0.1 SSE 35 59 19 32 - - 1.6
03/07:30pm 0.6 -8.0 0.3 98 0.1 S 35 56 19 30 - - 1.4
03/07:00pm 0.9 -8.4 0.6 98 0.1 S 39 65 21 35 - - 1.4
03/06:36pm 0.8 -6.4 0.5 98 0.1 S 28 50 15 27 - - 1.4
03/06:30pm 0.7 -5.4 0.4 98 0.1 S 22 43 12 23 - - 1.4
03/06:00pm 0.7 -6.9 0.4 98 0.1 S 30 52 16 28 - - 1.4
03/05:30pm 1.3 -6.2 1.0 98 0.1 S 30 50 16 27 - - 1.4
03/05:04pm 1.4 -5.7 1.1 98 0.1 S 28 54 15 29 - - 1.4
03/05:00pm 1.4 -5.4 1.1 98 0.1 S 26 50 14 27 - - 1.4
03/04:30pm 1.2 -3.5 0.9 98 0.1 S 15 32 8 17 - - 1.4
03/04:00pm 0.9 -5.9 0.6 98 0.1 SSE 26 44 14 24 - - 1.4
03/03:30pm 1.1 -4.4 0.8 98 0.1 SSE 19 41 10 22 - - 1.2
03/03:04pm 1.1 -6.1 0.8 98 0.1 SSE 28 46 15 25 - - 1.2
03/03:00pm 1.1 -5.7 0.8 98 0.1 SSE 26 46 14 25 - - 1.2
03/02:30pm 1.2 -4.4 0.9 98 0.1 SSE 20 37 11 20 - - 1.2
03/02:00pm 1.1 -4.4 0.8 98 0.1 SSE 19 37 10 20 - - 1.2
03/01:30pm 0.9 -4.8 0.6 98 0.1 SSE 20 37 11 20 - - 1.2
03/01:00pm 0.8 -4.7 0.5 98 0.1 SSE 19 35 10 19 - - 1.2
03/12:30pm 0.4 -5.2 0.1 98 0.1 SSE 19 35 10 19 - - 1.2
03/12:00pm 0.8 -4.3 0.5 98 0.1 SSE 17 35 9 19 - - 1.2
03/11:30am 0.0 -5.8 -0.3 98 0.1 S 20 33 11 18 - - 1.2
03/11:00am 0.1 -4.4 -0.2 98 0.1 S 13 24 7 13 - - 1.2
03/10:30am -0.1 -5.4 -0.4 98 0.1 SSW 17 26 9 14 - - 1.0
03/10:00am 0.2 -5.6 -0.1 98 0.1 SW 20 33 11 18 - - 0.8
03/09:30am 0.8 -4.3 0.5 98 0.1 SW 17 30 9 16 - - 0.6
03/09:00am 0.7 -2.9 0.4 98 0.1 WSW 9 19 5 10 - - 10.6
03/08:30am 0.7 -3.3 0.4 98 0.1 W 11 24 6 13 - - 9.8
03/08:00am 0.5 -3.9 0.2 98 0.1 WSW 13 22 7 12 - - 9.6
03/07:30am 0.3 -4.9 0.0 98 0.1 W 17 32 9 17 - - 9.6
03/07:00am 0.2 -5.0 0.1 99 0.0 W 17 32 9 17 - - 9.6
03/06:30am 0.3 -5.3 0.2 99 0.0 W 19 35 10 19 - - 9.6
03/06:00am 0.3 -4.9 0.2 99 0.0 W 17 28 9 15 - - 9.4
03/05:30am 0.4 -4.8 0.3 99 0.0 W 17 32 9 17 - - 9.4
03/05:00am 0.4 -5.1 0.3 99 0.0 WNW 19 33 10 18 - - 9.4
03/04:30am 0.5 -5.6 0.4 99 0.0 NW 22 37 12 20 - - 9.4
03/04:00am 0.7 -5.0 0.6 99 0.0 NW 20 35 11 19 - - 9.4
03/03:30am 1.0 -4.5 0.9 99 0.0 NW 19 32 10 17 - - 9.4
03/03:00am 1.1 -2.8 1.0 99 0.0 NNW 11 24 6 13 - - 9.4
03/02:30am 1.2 -2.7 1.1 99 0.0 NNE 11 28 6 15 - - 9.2
03/02:00am 1.3 -3.0 1.2 99 0.0 ENE 13 22 7 12 - - 8.0
03/01:30am 1.0 -4.6 0.9 99 0.0 ENE 20 33 11 18 - - 7.8
03/01:00am 0.7 -5.0 0.6 99 0.0 ENE 20 32 11 17 - - 7.4
03/12:30am 0.4 -5.4 0.1 98 0.1 NE 20 43 11 23 - - 6.2
03/12:00am 0.4 -5.2 0.1 98 0.1 NE 19 30 10 16 - - 4.2
 
Date/Time
EST
Temp
°C
App
Temp
°C
Dew
Point
Rel
Hum
%
Delta-T
°C
Wind Press
QNH
hPa
Press
MSL
hPa
Rain
since 9 am
mm
Dir
 
Spd
km/h
Gust
km/h
Spd
kts
Gust
kts
02/11:30pm 0.8 -4.3 0.5 98 0.1 NE 17 30 9 16 - - 3.0
02/11:00pm 1.3 -4.2 0.9 97 0.2 NNE 19 41 10 22 - - 1.8
02/10:30pm 2.3 -2.6 1.9 97 0.2 NE 17 32 9 17 - - 1.0
02/10:00pm 1.9 -2.4 1.3 96 0.3 NE 13 22 7 12 - - 1.0
02/09:30pm 2.0 -2.3 1.3 95 0.3 NE 13 26 7 14 - - 0.6
02/09:00pm 3.0 -1.9 2.0 93 0.4 NNE 17 28 9 15 - - 0.0
02/08:30pm 2.6 -2.0 1.6 93 0.4 N 15 39 8 21 - - 0.0

Other Formats:

Comma delimited format used in spreadsheet applications
http://www.bom.gov.au/fwo/IDN60801/IDN60801.95925.axf

JavaScript Object Notation format (JSON) in row-major order
http://www.bom.gov.au/fwo/IDN60801/IDN60801.95925.json